Fire Weather Observation
Issued by NWS Grand Junction, CO

Home | Current Version | Previous Version | Graphics & Text | Print | Product List | Glossary On
Versions: 1 2 3 4 5 6 7 8 9 10 11 12 13 14 15 16 17 18 19 20 21 22 23 24 25 26 27 28 29 30 31 32 33 34 35
000
SHUS65 KGJT 202015
FWOGJT

DAILY FIRE WEATHER OBSERVATION
NATIONAL WEATHER SERVICE GRAND JUNCTION CO
212 PM MDT FRI APR 20 2018

STATE OF THE WEATHER (W)               3
DRY BULB TEMPERATURE                   48   DEGREES FAHRENHEIT
RELATIVE HUMIDITY (RH)                 44   PERCENT
LIGHTNING ACTIVITY LEVEL
  (LAL - MIDNIGHT TO 2 PM)             2
WIND DIRECTION                         090  DEGREES (C IF CALM)
WIND SPEED                             10   MPH
MAX TEMP (2 PM - 2 PM)                 75   DEGREES FAHRENHEIT
MIN TEMP (2 PM - 2 PM)                 48   DEGREES FAHRENHEIT
MAX RH (2 PM - 2 PM)                   48   PERCENT
MIN RH (2 PM - 2 PM)                   8    PERCENT
PCPN DURATION                          0.6  HOURS
PCPN AMT (2 PM - 2 PM)                 T   INCHES
LAL (2 PM - 2 PM)                      2

$$

METAR KGJT 201953Z 11009KT 10SM OVC050 09/M03 A2995 RMK AO2
      RAE1856 SLP106 P0000 T00891028



USA.gov is the U.S. government's official web portal to all federal, state and local government web resources and services.